Terminal Aerodrome Forecast
Issued by NWS

Home | Current Version | Previous Version | Graphics & Text | Print | Product List | Glossary On
Versions: 1 2 3 4 5 6 7 8 9 10 11 12 13 14 15 16 17 18 19 20 21 22 23 24 25
134
FTUS43 KABR 091735
TAFMBG
TAF
KMBG 091735Z 0918/1018 21009KT P6SM OVC060
     FM100700 14005KT 4SM -SN OVC015
     FM101000 14010KT 4SM BR OVC007
     FM101500 16007KT 6SM BR OVC009=

USA.gov is the U.S. government's official web portal to all federal, state and local government web resources and services.